createdAt,value
2023-05-06T00:09:41.458Z,3.63
2023-05-06T00:19:44.379Z,3.60
2023-05-06T00:29:47.117Z,3.40
2023-05-06T00:39:48.770Z,4.10
2023-05-06T00:49:51.432Z,3.90
2023-05-06T00:59:54.688Z,4.33
2023-05-06T01:10:02.507Z,3.77
2023-05-06T01:20:06.285Z,4.37
2023-05-06T01:30:08.722Z,4.30
2023-05-06T01:40:10.898Z,4.93
2023-05-06T01:50:13.097Z,4.67
2023-05-06T02:00:14.995Z,4.50
2023-05-06T02:10:17.049Z,3.97
2023-05-06T02:20:18.759Z,4.30
2023-05-06T02:30:20.553Z,6.10
2023-05-06T02:40:22.217Z,4.80
2023-05-06T02:50:23.978Z,4.80
2023-05-06T03:00:25.869Z,5.00
2023-05-06T03:10:27.482Z,5.60
2023-05-06T03:20:29.271Z,5.50
2023-05-06T03:30:31.113Z,5.23
2023-05-06T03:40:33.456Z,5.17
2023-05-06T03:50:35.236Z,5.53
2023-05-06T04:00:37.013Z,5.43
2023-05-06T04:10:40.224Z,5.83
2023-05-06T04:20:41.849Z,5.00
2023-05-06T04:30:44.804Z,5.93
2023-05-06T04:40:46.495Z,5.20
2023-05-06T04:50:49.102Z,5.50
2023-05-06T05:00:50.793Z,5.27
2023-05-06T05:10:55.494Z,5.40
2023-05-06T05:20:57.124Z,5.93
2023-05-06T05:31:06.345Z,5.37
2023-05-06T05:41:09.642Z,6.03
2023-05-06T05:51:11.350Z,6.70
2023-05-06T06:01:13.119Z,7.27
2023-05-06T06:11:14.770Z,4.33
2023-05-06T06:21:16.424Z,9.00
2023-05-06T06:31:18.585Z,4.13
2023-05-06T06:41:20.304Z,3.57
2023-05-06T06:51:22.087Z,3.50
2023-05-06T07:01:23.916Z,3.33
2023-05-06T07:11:25.832Z,3.10
2023-05-06T07:21:27.870Z,3.10
2023-05-06T07:31:29.766Z,3.17
2023-05-06T07:41:31.475Z,2.70
2023-05-06T07:51:33.362Z,3.00
2023-05-06T08:01:36.181Z,3.10
2023-05-06T08:11:37.806Z,2.77
2023-05-06T08:21:39.472Z,2.13
2023-05-06T08:31:41.227Z,2.20
2023-05-06T08:41:48.533Z,2.43
2023-05-06T08:51:52.578Z,1.77
2023-05-06T09:01:56.409Z,2.47
2023-05-06T09:12:01.763Z,5.27
2023-05-06T09:22:04.016Z,1.80
2023-05-06T09:32:08.207Z,1.80
2023-05-06T09:42:09.914Z,1.40
2023-05-06T09:52:12.710Z,1.43
2023-05-06T10:02:15.181Z,1.20
2023-05-06T10:12:16.988Z,1.40
2023-05-06T10:22:30.280Z,1.47
2023-05-06T10:32:32.987Z,5.40
2023-05-06T10:42:35.433Z,7.40
2023-05-06T10:52:45.225Z,1.67
2023-05-06T11:02:54.462Z,1.57
2023-05-06T11:12:56.714Z,1.60
2023-05-06T11:22:58.408Z,1.57
2023-05-06T11:33:05.536Z,3.17
2023-05-06T11:43:11.993Z,1.70
2023-05-06T11:53:17.034Z,1.20
2023-05-06T12:03:19.951Z,1.23
2023-05-06T12:13:22.020Z,1.13
2023-05-06T12:23:23.895Z,1.03
2023-05-06T12:33:25.525Z,1.17
2023-05-06T12:43:31.434Z,1.13
2023-05-06T12:53:35.530Z,1.23
2023-05-06T13:03:38.847Z,1.10
2023-05-06T13:13:40.994Z,1.00
2023-05-06T13:23:47.888Z,1.40
2023-05-06T13:33:49.995Z,1.00
2023-05-06T13:43:52.223Z,1.27
2023-05-06T13:53:53.894Z,1.10
2023-05-06T14:03:55.687Z,1.20
2023-05-06T14:13:57.505Z,1.10
2023-05-06T14:23:59.274Z,1.40
2023-05-06T14:34:02.311Z,1.10
2023-05-06T14:44:04.221Z,1.20
2023-05-06T14:54:06.031Z,0.88
2023-05-06T15:04:10.054Z,1.02
2023-05-06T15:14:11.705Z,0.85
2023-05-06T15:24:13.342Z,0.90
2023-05-06T15:34:15.067Z,1.05
2023-05-06T15:44:16.851Z,0.80
2023-05-06T15:54:18.483Z,1.20
2023-05-06T16:04:20.353Z,1.10
2023-05-06T16:14:22.138Z,1.20
2023-05-06T16:24:23.795Z,1.00
2023-05-06T16:34:25.520Z,1.10
2023-05-06T16:44:28.471Z,1.15
2023-05-06T16:54:30.663Z,1.10
2023-05-06T17:04:32.300Z,1.60
2023-05-06T17:14:35.378Z,1.20
2023-05-06T17:24:37.043Z,1.47
2023-05-06T17:34:38.733Z,1.30
2023-05-06T17:44:42.536Z,1.27
2023-05-06T17:54:44.351Z,1.50
2023-05-06T18:04:47.411Z,1.37
2023-05-06T18:14:49.080Z,1.53
2023-05-06T18:24:55.013Z,1.67
2023-05-06T18:34:56.944Z,3.40
2023-05-06T18:44:59.391Z,5.77
2023-05-06T18:55:02.678Z,4.30
2023-05-06T19:05:04.668Z,4.67
2023-05-06T19:15:07.108Z,5.47
2023-05-06T19:25:09.699Z,3.20
2023-05-06T19:35:12.023Z,3.10
2023-05-06T19:45:16.470Z,3.53
2023-05-06T19:55:19.706Z,2.33
2023-05-06T20:05:21.522Z,2.73
2023-05-06T20:15:23.352Z,3.60
2023-05-06T20:25:25.592Z,6.63
2023-05-06T20:35:27.350Z,3.03
2023-05-06T20:45:30.962Z,3.47
2023-05-06T20:55:33.544Z,3.57
2023-05-06T21:05:35.366Z,3.77
2023-05-06T21:15:38.158Z,3.70
2023-05-06T21:25:39.799Z,3.60
2023-05-06T21:35:41.465Z,3.70
2023-05-06T21:45:43.714Z,3.53
2023-05-06T21:55:45.605Z,3.80
2023-05-06T22:05:47.438Z,3.77
2023-05-06T22:15:49.270Z,4.13
2023-05-06T22:25:54.696Z,4.30
2023-05-06T22:35:56.437Z,4.07
2023-05-06T22:45:58.112Z,4.40
2023-05-06T22:55:59.846Z,4.27
2023-05-06T23:06:01.646Z,4.30
2023-05-06T23:16:03.827Z,4.40
2023-05-06T23:26:05.541Z,4.07
2023-05-06T23:36:07.457Z,4.27
2023-05-06T23:46:09.458Z,3.80
2023-05-06T23:56:11.151Z,4.00
